createdAt,value
2018-01-27T00:00:39.895Z,18.67
2018-01-27T00:03:07.327Z,28.80
2018-01-27T00:05:35.531Z,25.03
2018-01-27T00:08:03.007Z,20.07
2018-01-27T00:10:31.172Z,22.97
2018-01-27T00:12:58.614Z,23.70
2018-01-27T00:15:26.814Z,20.43
2018-01-27T00:17:54.284Z,22.17
2018-01-27T00:20:22.481Z,29.10
2018-01-27T00:22:51.959Z,38.13
2018-01-27T00:25:19.394Z,32.50
2018-01-27T00:27:46.832Z,29.67
2018-01-27T00:30:15.041Z,21.30
2018-01-27T00:32:42.476Z,34.90
2018-01-27T00:35:09.911Z,21.30
2018-01-27T00:37:38.112Z,27.97
2018-01-27T00:40:05.543Z,21.00
2018-01-27T00:42:33.743Z,27.63
2018-01-27T00:45:01.168Z,19.97
2018-01-27T00:47:28.613Z,22.47
2018-01-27T00:49:56.088Z,17.53
2018-01-27T00:52:24.287Z,19.47
2018-01-27T00:54:51.716Z,14.53
2018-01-27T00:57:19.148Z,22.67
2018-01-27T00:59:46.588Z,15.87
2018-01-27T01:02:14.020Z,22.03
2018-01-27T01:04:41.464Z,16.50
2018-01-27T01:07:09.664Z,18.33
2018-01-27T01:09:37.108Z,33.93
2018-01-27T01:12:04.531Z,25.40
2018-01-27T01:14:32.732Z,22.33
2018-01-27T01:17:00.169Z,26.87
2018-01-27T01:19:28.378Z,21.40
2018-01-27T01:21:55.804Z,24.20
2018-01-27T01:24:24.076Z,22.30
2018-01-27T01:26:52.281Z,17.97
2018-01-27T01:29:19.716Z,25.10
2018-01-27T01:31:47.925Z,22.37
2018-01-27T01:34:15.368Z,23.70
2018-01-27T01:36:42.820Z,20.97
2018-01-27T01:39:10.255Z,20.33
2018-01-27T01:41:38.456Z,24.27
2018-01-27T01:44:11.484Z,18.67
2018-01-27T01:46:38.925Z,21.10
2018-01-27T01:49:18.263Z,21.70
2018-01-27T01:51:45.707Z,18.30
2018-01-27T01:54:13.152Z,17.93
2018-01-27T01:56:40.576Z,21.13
2018-01-27T01:59:08.780Z,15.23
2018-01-27T02:01:36.216Z,16.43
2018-01-27T02:04:04.411Z,29.50
2018-01-27T02:06:31.836Z,21.00
2018-01-27T02:08:59.272Z,17.33
2018-01-27T02:11:26.709Z,21.27
2018-01-27T02:13:54.213Z,21.80
2018-01-27T02:16:22.435Z,22.67
2018-01-27T02:18:49.869Z,20.60
2018-01-27T02:21:17.300Z,16.80
2018-01-27T02:23:45.499Z,17.20
2018-01-27T02:26:12.945Z,16.50
2018-01-27T02:28:41.153Z,18.93
2018-01-27T02:31:08.588Z,18.03
2018-01-27T02:33:36.016Z,17.53
2018-01-27T02:36:04.136Z,22.50
2018-01-27T02:38:31.560Z,15.27
2018-01-27T02:40:59.771Z,19.77
2018-01-27T02:43:27.202Z,17.10
2018-01-27T02:45:54.639Z,18.87
2018-01-27T02:48:22.834Z,23.40
2018-01-27T02:50:50.263Z,22.30
2018-01-27T02:53:17.694Z,19.60
2018-01-27T02:55:45.139Z,19.70
2018-01-27T02:58:12.568Z,22.97
2018-01-27T03:00:40.005Z,17.37
2018-01-27T03:03:08.241Z,24.77
2018-01-27T03:05:35.679Z,20.10
2018-01-27T03:08:03.111Z,15.90
2018-01-27T03:10:30.550Z,16.57
2018-01-27T03:12:58.744Z,18.33
2018-01-27T03:15:26.176Z,17.10
2018-01-27T03:17:54.370Z,16.97
2018-01-27T03:20:21.799Z,15.57
2018-01-27T03:22:49.229Z,20.50
2018-01-27T03:25:16.657Z,15.70
2018-01-27T03:27:44.095Z,23.30
2018-01-27T03:30:11.527Z,20.40
2018-01-27T03:32:38.959Z,18.23
2018-01-27T03:35:06.383Z,17.07
2018-01-27T03:37:33.818Z,14.47
2018-01-27T03:40:02.020Z,19.47
2018-01-27T03:42:29.451Z,18.57
2018-01-27T03:44:56.879Z,15.37
2018-01-27T03:47:24.305Z,18.13
2018-01-27T03:49:51.736Z,17.73
2018-01-27T03:52:19.154Z,17.50
2018-01-27T03:54:46.603Z,19.67
2018-01-27T03:57:14.031Z,31.00
2018-01-27T03:59:41.463Z,28.07
2018-01-27T04:02:08.903Z,30.07
2018-01-27T04:04:37.163Z,22.80
2018-01-27T04:07:05.403Z,22.27
2018-01-27T04:09:32.790Z,27.80
2018-01-27T04:12:00.219Z,21.70
2018-01-27T04:14:27.659Z,27.60
2018-01-27T04:16:55.086Z,23.97
2018-01-27T04:19:22.530Z,29.20
2018-01-27T04:21:50.720Z,18.03
2018-01-27T04:24:18.146Z,18.40
2018-01-27T04:26:45.571Z,20.93
2018-01-27T04:29:13.013Z,19.07
2018-01-27T04:31:40.439Z,17.60
2018-01-27T04:34:07.885Z,18.27
2018-01-27T04:36:36.079Z,19.17
2018-01-27T04:39:03.510Z,23.67
2018-01-27T04:41:31.705Z,21.80
2018-01-27T04:43:59.138Z,18.50
2018-01-27T04:46:26.568Z,21.03
2018-01-27T04:48:54.002Z,19.07
2018-01-27T04:51:21.457Z,16.60
2018-01-27T04:53:48.870Z,16.50
2018-01-27T04:56:17.078Z,16.87
2018-01-27T04:58:44.507Z,16.83
2018-01-27T05:01:12.698Z,17.03
2018-01-27T05:03:40.131Z,14.60
2018-01-27T05:06:08.323Z,18.50
2018-01-27T05:08:36.528Z,19.27
2018-01-27T05:11:03.972Z,16.00
2018-01-27T05:13:31.398Z,21.40
2018-01-27T05:15:58.818Z,14.97
2018-01-27T05:18:26.254Z,16.83
2018-01-27T05:20:53.691Z,17.97
2018-01-27T05:23:21.119Z,18.80
2018-01-27T05:25:49.335Z,26.03
2018-01-27T05:28:16.750Z,18.00
2018-01-27T05:30:44.178Z,15.57
2018-01-27T05:33:11.653Z,19.50
2018-01-27T05:35:39.097Z,16.60
2018-01-27T05:38:06.535Z,18.53
2018-01-27T05:40:33.967Z,17.77
2018-01-27T05:43:01.403Z,21.00
2018-01-27T05:45:29.604Z,17.60
2018-01-27T05:47:57.030Z,13.13
2018-01-27T05:50:25.229Z,22.87
2018-01-27T05:52:52.647Z,17.30
2018-01-27T05:55:20.094Z,15.60
2018-01-27T05:57:47.519Z,16.30
2018-01-27T06:00:14.952Z,15.60
2018-01-27T06:02:42.379Z,16.63
2018-01-27T06:05:10.584Z,21.70
2018-01-27T06:07:38.026Z,19.20
2018-01-27T06:10:06.219Z,18.23
2018-01-27T06:12:33.646Z,16.40
2018-01-27T06:15:01.066Z,20.90
2018-01-27T06:17:28.507Z,18.07
2018-01-27T06:19:55.933Z,13.70
2018-01-27T06:22:23.389Z,15.97
2018-01-27T06:24:51.582Z,21.70
2018-01-27T06:27:19.034Z,13.97
2018-01-27T06:29:46.456Z,16.73
2018-01-27T06:32:13.890Z,17.60
2018-01-27T06:34:41.316Z,19.10
2018-01-27T06:37:08.760Z,15.90
2018-01-27T06:39:36.187Z,25.40
2018-01-27T06:42:03.622Z,71.40
2018-01-27T06:44:31.056Z,98.07
2018-01-27T06:46:58.488Z,53.37
2018-01-27T06:49:25.934Z,62.47
2018-01-27T06:51:53.373Z,62.90
2018-01-27T06:54:21.570Z,37.23
2018-01-27T06:56:48.999Z,42.00
2018-01-27T06:59:16.435Z,60.57
2018-01-27T07:01:43.879Z,39.60
2018-01-27T07:04:11.303Z,90.10
2018-01-27T07:06:38.743Z,79.20
2018-01-27T07:09:06.968Z,42.27
2018-01-27T07:11:34.384Z,31.27
2018-01-27T07:14:01.852Z,53.90
2018-01-27T07:16:29.294Z,42.50
2018-01-27T07:18:57.483Z,72.20
2018-01-27T07:21:24.909Z,91.33
2018-01-27T07:23:53.111Z,43.83
2018-01-27T07:26:20.548Z,46.83
2018-01-27T07:28:49.740Z,80.93
2018-01-27T07:31:17.959Z,28.73
2018-01-27T07:33:45.376Z,39.73
2018-01-27T07:36:13.590Z,43.87
2018-01-27T07:38:41.012Z,41.57
2018-01-27T07:41:09.221Z,63.87
2018-01-27T07:43:36.634Z,40.10
2018-01-27T07:46:08.290Z,44.80
2018-01-27T07:48:36.499Z,47.50
2018-01-27T07:51:03.930Z,53.87
2018-01-27T07:53:32.126Z,44.87
2018-01-27T07:55:59.559Z,37.07
2018-01-27T07:58:27.758Z,110.77
2018-01-27T08:00:55.191Z,73.30
2018-01-27T08:03:24.382Z,59.27
2018-01-27T08:05:52.667Z,39.30
2018-01-27T08:08:20.859Z,60.90
2018-01-27T08:10:48.309Z,53.53
2018-01-27T08:13:16.514Z,38.43
2018-01-27T08:15:43.935Z,36.23
2018-01-27T08:18:12.129Z,67.80
2018-01-27T08:20:39.562Z,58.70
2018-01-27T08:23:07.828Z,34.37
2018-01-27T08:25:36.046Z,38.40
2018-01-27T08:28:03.467Z,52.00
2018-01-27T08:30:31.668Z,36.77
2018-01-27T08:32:59.097Z,66.53
2018-01-27T08:35:27.296Z,52.87
2018-01-27T08:37:54.738Z,80.60
2018-01-27T08:40:22.943Z,43.50
2018-01-27T08:42:50.355Z,67.43
2018-01-27T08:45:18.559Z,103.20
2018-01-27T08:47:45.994Z,58.63
2018-01-27T08:50:14.190Z,26.23
2018-01-27T08:52:41.652Z,56.13
2018-01-27T08:55:09.058Z,41.27
2018-01-27T08:57:36.486Z,57.77
2018-01-27T09:00:03.927Z,74.33
2018-01-27T09:02:31.352Z,94.73
2018-01-27T09:04:59.543Z,64.30
2018-01-27T09:07:26.968Z,48.43
2018-01-27T09:09:54.400Z,52.83
2018-01-27T09:12:21.864Z,43.87
2018-01-27T09:14:49.307Z,21.50
2018-01-27T09:17:16.741Z,37.03
2018-01-27T09:19:44.176Z,73.77
2018-01-27T09:22:12.367Z,65.63
2018-01-27T09:24:39.807Z,30.87
2018-01-27T09:27:08.007Z,31.50
2018-01-27T09:29:35.439Z,25.07
2018-01-27T09:32:03.644Z,30.20
2018-01-27T09:34:31.087Z,41.40
2018-01-27T09:36:58.518Z,36.53
2018-01-27T09:39:26.726Z,47.63
2018-01-27T09:41:54.163Z,23.77
2018-01-27T09:44:22.357Z,28.70
2018-01-27T09:46:49.793Z,45.27
2018-01-27T09:49:18.004Z,53.67
2018-01-27T09:51:45.436Z,31.20
2018-01-27T09:54:12.873Z,60.83
2018-01-27T09:56:41.067Z,29.33
2018-01-27T09:59:08.495Z,46.17
2018-01-27T10:01:36.694Z,31.33
2018-01-27T10:04:04.128Z,41.30
2018-01-27T10:06:32.326Z,31.37
2018-01-27T10:08:59.759Z,27.23
2018-01-27T10:11:29.991Z,32.60
2018-01-27T10:13:58.200Z,45.87
2018-01-27T10:16:25.628Z,49.47
2018-01-27T10:18:53.821Z,28.57
2018-01-27T10:21:21.258Z,37.20
2018-01-27T10:23:49.447Z,44.43
2018-01-27T10:26:16.874Z,44.00
2018-01-27T10:28:45.075Z,37.53
2018-01-27T10:31:12.522Z,36.57
2018-01-27T10:33:40.728Z,27.53
2018-01-27T10:36:08.164Z,38.17
2018-01-27T10:38:35.590Z,49.83
2018-01-27T10:41:03.048Z,30.23
2018-01-27T10:43:30.479Z,34.73
2018-01-27T10:45:57.910Z,29.60
2018-01-27T10:48:25.335Z,26.00
2018-01-27T10:50:54.515Z,30.70
2018-01-27T10:53:21.943Z,36.50
2018-01-27T10:55:49.388Z,42.97
2018-01-27T10:58:16.820Z,32.27
2018-01-27T11:00:48.132Z,47.10
2018-01-27T11:03:15.549Z,27.43
2018-01-27T11:05:42.986Z,34.90
2018-01-27T11:08:10.407Z,36.17
2018-01-27T11:10:37.839Z,33.50
2018-01-27T11:13:05.368Z,36.03
2018-01-27T11:15:32.845Z,32.33
2018-01-27T11:18:00.269Z,37.23
2018-01-27T11:20:27.695Z,40.70
2018-01-27T11:22:55.896Z,36.40
2018-01-27T11:25:23.335Z,39.90
2018-01-27T11:27:51.551Z,33.70
2018-01-27T11:30:18.968Z,32.20
2018-01-27T11:32:48.159Z,38.37
2018-01-27T11:35:16.345Z,35.23
2018-01-27T11:37:46.212Z,35.47
2018-01-27T11:40:13.647Z,39.10
2018-01-27T11:42:41.083Z,32.83
2018-01-27T11:45:08.525Z,36.27
2018-01-27T11:47:35.951Z,44.17
2018-01-27T11:50:03.386Z,35.97
2018-01-27T11:52:30.851Z,36.63
2018-01-27T11:54:58.305Z,41.87
2018-01-27T11:57:25.703Z,58.70
2018-01-27T11:59:53.901Z,29.33
2018-01-27T12:02:21.334Z,41.10
2018-01-27T12:04:49.536Z,39.07
2018-01-27T12:07:16.966Z,35.90
2018-01-27T12:09:45.168Z,32.70
2018-01-27T12:12:12.595Z,34.30
2018-01-27T12:14:40.787Z,35.00
2018-01-27T12:17:08.986Z,31.37
2018-01-27T12:19:36.418Z,50.57
2018-01-27T12:22:04.618Z,42.83
2018-01-27T12:24:32.050Z,28.20
2018-01-27T12:26:59.484Z,34.17
2018-01-27T12:29:26.923Z,40.60
2018-01-27T12:31:54.347Z,46.57
2018-01-27T12:34:21.783Z,40.90
2018-01-27T12:36:49.206Z,49.47
2018-01-27T12:39:16.640Z,35.83
2018-01-27T12:41:44.076Z,50.53
2018-01-27T12:44:11.533Z,44.13
2018-01-27T12:46:38.971Z,45.47
2018-01-27T12:49:06.408Z,33.47
2018-01-27T12:51:34.596Z,41.33
2018-01-27T12:54:02.033Z,42.10
2018-01-27T12:56:30.223Z,43.17
2018-01-27T12:58:57.658Z,40.60
2018-01-27T13:01:25.087Z,35.47
2018-01-27T13:03:52.512Z,42.83
2018-01-27T13:06:19.936Z,39.10
2018-01-27T13:08:48.133Z,41.30
2018-01-27T13:11:15.565Z,44.23
2018-01-27T13:13:43.782Z,39.63
2018-01-27T13:16:11.218Z,42.70
2018-01-27T13:18:38.646Z,39.23
2018-01-27T13:21:06.080Z,47.77
2018-01-27T13:23:33.510Z,45.00
2018-01-27T13:26:00.938Z,38.13
2018-01-27T13:28:29.123Z,43.43
2018-01-27T13:30:56.551Z,36.93
2018-01-27T13:33:24.750Z,48.57
2018-01-27T13:35:52.183Z,43.23
2018-01-27T13:38:20.379Z,43.07
2018-01-27T13:40:47.811Z,45.40
2018-01-27T13:43:15.233Z,44.73
2018-01-27T13:45:42.681Z,49.70
2018-01-27T13:48:10.125Z,38.57
2018-01-27T13:50:37.530Z,48.37
2018-01-27T13:53:04.963Z,43.13
2018-01-27T13:55:32.401Z,44.73
2018-01-27T13:57:59.833Z,41.00
2018-01-27T14:00:27.259Z,44.20
2018-01-27T14:02:54.691Z,43.57
2018-01-27T14:05:22.127Z,46.13
2018-01-27T14:07:49.571Z,43.17
2018-01-27T14:10:16.999Z,51.17
2018-01-27T14:12:45.190Z,39.47
2018-01-27T14:15:12.627Z,52.87
2018-01-27T14:17:40.085Z,56.53
2018-01-27T14:20:08.276Z,40.77
2018-01-27T14:22:36.484Z,46.73
2018-01-27T14:25:03.910Z,55.17
2018-01-27T14:27:31.346Z,85.70
2018-01-27T14:29:58.777Z,60.70
2018-01-27T14:32:26.220Z,48.93
2018-01-27T14:34:53.648Z,42.50
2018-01-27T14:37:21.070Z,49.20
2018-01-27T14:39:48.510Z,62.00
2018-01-27T14:42:15.939Z,47.03
2018-01-27T14:44:43.367Z,51.73
2018-01-27T14:47:10.791Z,53.33
2018-01-27T14:49:38.226Z,57.73
2018-01-27T14:52:05.662Z,49.07
2018-01-27T14:54:33.089Z,61.80
2018-01-27T14:57:01.279Z,58.87
2018-01-27T14:59:28.719Z,49.93
2018-01-27T15:01:56.921Z,46.70
2018-01-27T15:04:24.352Z,44.47
2018-01-27T15:06:52.553Z,43.20
2018-01-27T15:09:19.987Z,48.07
2018-01-27T15:11:48.198Z,36.47
2018-01-27T15:14:15.624Z,37.93
2018-01-27T15:16:43.054Z,50.00
2018-01-27T15:19:11.261Z,51.23
2018-01-27T15:21:38.687Z,33.57
2018-01-27T15:24:06.883Z,45.10
2018-01-27T15:26:34.315Z,41.17
2018-01-27T15:29:02.509Z,42.30
2018-01-27T15:31:30.710Z,45.43
2018-01-27T15:33:58.135Z,50.73
2018-01-27T15:36:26.327Z,45.50
2018-01-27T15:38:53.756Z,46.53
2018-01-27T15:41:21.964Z,38.83
2018-01-27T15:43:49.395Z,50.53
2018-01-27T15:46:17.605Z,46.07
2018-01-27T15:48:45.019Z,52.07
2018-01-27T15:51:13.283Z,52.83
2018-01-27T15:53:40.695Z,41.70
2018-01-27T15:56:09.230Z,48.00
2018-01-27T15:58:36.655Z,47.40
2018-01-27T16:01:04.094Z,46.40
2018-01-27T16:03:31.532Z,50.27
2018-01-27T16:05:58.968Z,45.23
2018-01-27T16:08:27.229Z,46.93
2018-01-27T16:10:54.662Z,46.53
2018-01-27T16:13:22.093Z,63.07
2018-01-27T16:15:49.607Z,52.50
2018-01-27T16:18:17.791Z,67.37
2018-01-27T16:20:45.996Z,50.17
2018-01-27T16:23:13.414Z,57.97
2018-01-27T16:25:41.615Z,81.37
2018-01-27T16:28:09.035Z,69.87
2018-01-27T16:30:36.464Z,60.70
2018-01-27T16:33:06.060Z,81.43
2018-01-27T16:35:33.571Z,76.40
2018-01-27T16:38:01.774Z,69.87
2018-01-27T16:40:29.200Z,82.57
2018-01-27T16:42:57.400Z,75.13
2018-01-27T16:45:24.836Z,66.93
2018-01-27T16:47:53.027Z,79.47
2018-01-27T16:50:20.455Z,62.97
2018-01-27T16:52:47.891Z,73.57
2018-01-27T16:55:15.323Z,80.70
2018-01-27T16:57:50.972Z,73.73
2018-01-27T17:00:19.500Z,68.03
2018-01-27T17:02:46.935Z,72.97
2018-01-27T17:05:14.408Z,76.17
2018-01-27T17:07:41.834Z,89.90
2018-01-27T17:10:09.344Z,75.80
2018-01-27T17:12:37.644Z,62.80
2018-01-27T17:15:05.070Z,76.27
2018-01-27T17:17:33.284Z,88.60
2018-01-27T17:20:00.702Z,84.27
2018-01-27T17:22:28.921Z,97.87
2018-01-27T17:24:56.343Z,69.57
2018-01-27T17:27:24.538Z,85.77
2018-01-27T17:29:51.968Z,78.70
2018-01-27T17:32:20.159Z,85.10
2018-01-27T17:34:47.590Z,109.87
2018-01-27T17:37:15.028Z,103.37
2018-01-27T17:39:42.463Z,85.73
2018-01-27T17:42:09.910Z,102.40
2018-01-27T17:44:37.344Z,99.80
2018-01-27T17:47:04.787Z,112.60
2018-01-27T17:49:32.982Z,164.60
2018-01-27T17:52:00.422Z,118.27
2018-01-27T17:54:28.615Z,98.27
2018-01-27T17:56:56.095Z,101.30
2018-01-27T17:59:23.534Z,144.63
2018-01-27T18:01:50.971Z,127.20
2018-01-27T18:04:19.177Z,154.17
2018-01-27T18:06:46.627Z,111.13
2018-01-27T18:09:14.050Z,102.10
2018-01-27T18:11:42.270Z,112.33
2018-01-27T18:14:09.695Z,117.97
2018-01-27T18:16:37.907Z,108.57
2018-01-27T18:19:05.955Z,100.53
2018-01-27T18:21:33.947Z,96.63
2018-01-27T18:24:01.365Z,88.17
2018-01-27T18:26:29.566Z,111.17
2018-01-27T18:28:56.984Z,83.40
2018-01-27T18:31:24.416Z,102.10
2018-01-27T18:33:51.854Z,80.20
2018-01-27T18:36:19.279Z,74.93
2018-01-27T18:38:46.708Z,87.80
2018-01-27T18:41:14.912Z,93.03
2018-01-27T18:43:42.331Z,93.20
2018-01-27T18:46:09.768Z,91.50
2018-01-27T18:48:37.203Z,86.60
2018-01-27T18:51:04.635Z,80.70
2018-01-27T18:53:32.076Z,98.03
2018-01-27T18:56:02.296Z,85.07
2018-01-27T18:58:30.499Z,98.17
2018-01-27T19:00:57.928Z,97.07
2018-01-27T19:03:26.135Z,112.37
2018-01-27T19:05:53.558Z,115.23
2018-01-27T19:08:21.766Z,130.50
2018-01-27T19:10:49.247Z,142.70
2018-01-27T19:13:17.407Z,136.93
2018-01-27T19:15:44.844Z,136.90
2018-01-27T19:18:12.274Z,162.77
2018-01-27T19:20:40.475Z,134.03
2018-01-27T19:23:08.687Z,146.93
2018-01-27T19:25:36.114Z,145.90
2018-01-27T19:28:03.551Z,145.87
2018-01-27T19:30:31.762Z,161.13
2018-01-27T19:32:59.187Z,157.87
2018-01-27T19:35:26.628Z,155.07
2018-01-27T19:37:54.058Z,144.90
2018-01-27T19:40:21.487Z,138.23
2018-01-27T19:42:48.940Z,123.83
2018-01-27T19:45:16.390Z,117.73
2018-01-27T19:47:43.818Z,120.13
2018-01-27T19:50:12.086Z,112.60
2018-01-27T19:52:40.290Z,107.73
2018-01-27T19:55:07.734Z,112.73
2018-01-27T19:57:35.937Z,103.67
2018-01-27T20:00:03.359Z,103.37
2018-01-27T20:02:31.566Z,109.10
2018-01-27T20:04:58.994Z,122.53
2018-01-27T20:07:27.212Z,104.67
2018-01-27T20:09:54.643Z,89.87
2018-01-27T20:12:22.134Z,106.53
2018-01-27T20:14:49.519Z,112.07
2018-01-27T20:17:17.464Z,114.47
2018-01-27T20:28:55.092Z,110.50
2018-01-27T20:31:22.536Z,116.67
2018-01-27T20:33:49.990Z,123.83
2018-01-27T20:36:17.446Z,111.40
2018-01-27T20:38:44.896Z,128.50
2018-01-27T20:41:12.339Z,107.53
2018-01-27T20:43:40.558Z,123.33
2018-01-27T20:46:08.002Z,113.50
2018-01-27T20:48:35.464Z,113.47
2018-01-27T20:51:04.943Z,118.27
2018-01-27T20:53:32.409Z,124.27
2018-01-27T20:55:59.846Z,101.30
2018-01-27T20:58:28.139Z,103.97
2018-01-27T21:00:55.665Z,118.77
2018-01-27T21:03:23.142Z,92.23
2018-01-27T21:05:51.360Z,107.13
2018-01-27T21:08:18.825Z,111.70
2018-01-27T21:10:46.269Z,110.60
2018-01-27T21:13:14.717Z,103.47
2018-01-27T21:15:42.936Z,115.73
2018-01-27T21:18:10.387Z,98.77
2018-01-27T21:20:38.843Z,101.07
2018-01-27T21:23:06.304Z,101.53
2018-01-27T21:25:33.742Z,91.30
2018-01-27T21:28:03.977Z,95.17
2018-01-27T21:30:31.419Z,95.87
2018-01-27T21:32:59.631Z,98.37
2018-01-27T21:35:27.071Z,86.07
2018-01-27T21:37:54.516Z,83.77
2018-01-27T21:40:22.724Z,92.63
2018-01-27T21:42:50.178Z,88.73
2018-01-27T21:45:17.635Z,88.87
2018-01-27T21:47:45.090Z,90.23
2018-01-27T21:50:12.549Z,84.50
2018-01-27T21:52:40.006Z,94.67
2018-01-27T21:55:08.473Z,86.53
2018-01-27T21:57:35.920Z,74.90
2018-01-27T22:00:03.357Z,79.73
2018-01-27T22:02:31.575Z,81.90
2018-01-27T22:04:59.027Z,87.33
2018-01-27T22:07:27.285Z,80.07
2018-01-27T22:09:54.724Z,80.10
2018-01-27T22:12:22.941Z,73.23
2018-01-27T22:14:50.392Z,76.10
2018-01-27T22:17:17.833Z,60.63
2018-01-27T22:19:45.277Z,65.33
2018-01-27T22:22:13.495Z,70.63
2018-01-27T22:24:40.932Z,60.83
2018-01-27T22:27:08.381Z,70.57
2018-01-27T22:29:35.841Z,66.53
2018-01-27T22:32:03.332Z,62.67
2018-01-27T22:34:30.784Z,53.90
2018-01-27T22:36:58.234Z,64.00
2018-01-27T22:39:25.682Z,60.20
2018-01-27T22:41:53.124Z,64.20
2018-01-27T22:44:20.576Z,67.27
2018-01-27T22:46:48.795Z,63.00
2018-01-27T22:49:16.244Z,74.33
2018-01-27T22:51:43.685Z,75.80
2018-01-27T22:54:11.131Z,61.53
2018-01-27T22:56:38.574Z,67.47
2018-01-27T22:59:06.783Z,63.73
2018-01-27T23:01:34.225Z,83.90
2018-01-27T23:04:01.668Z,64.50
2018-01-27T23:06:29.107Z,59.23
2018-01-27T23:08:56.565Z,72.20
2018-01-27T23:11:24.768Z,82.33
2018-01-27T23:13:52.260Z,64.90
2018-01-27T23:16:19.698Z,72.70
2018-01-27T23:18:47.143Z,72.30
2018-01-27T23:21:14.586Z,68.70
2018-01-27T23:23:42.796Z,67.07
2018-01-27T23:26:10.245Z,76.40
2018-01-27T23:28:37.700Z,74.83
2018-01-27T23:31:06.178Z,67.87
2018-01-27T23:33:33.622Z,76.13
2018-01-27T23:36:01.068Z,63.33
2018-01-27T23:38:29.288Z,78.33
2018-01-27T23:40:56.722Z,57.50
2018-01-27T23:43:24.167Z,64.93
2018-01-27T23:45:51.612Z,62.30
2018-01-27T23:48:19.832Z,64.87
2018-01-27T23:50:48.033Z,51.40
2018-01-27T23:53:15.479Z,64.87
2018-01-27T23:55:42.924Z,60.27
2018-01-27T23:58:10.378Z,59.40
